AAL1832 KDEN-KDFW
Flight info
| Callsign | AAL1832 |
|---|---|
| Flight time | N/A |
| Altitude | 37000 |
| Route | SLEEK2 SLEEK EZEEE MDANO VKTRY2 |
| Aircraft | B738/M-SDE2E3FGHIRWXY/LB1 |
Departure
| Time | N/A |
|---|---|
| Airport | Denver International Airport (KDEN) |
Arrival
| Time | 2026-05-05 03:08 |
|---|---|
| Airport | Dallas Fort Worth International Airport (KDFW) |
| Time | Latitude | Longitude | Altitude | Speed | Heading |
|---|---|---|---|---|---|
| 2026-05-05 02:37 | 34.52303 | -100.21240 | 34615 ft | 407 kts | 357° |
| 2026-05-05 02:37 | 34.55033 | -100.20192 | 34641 ft | 430 kts | 9° |
| 2026-05-05 02:37 | 34.57714 | -100.18380 | 34645 ft | 456 kts | 21° |
| 2026-05-05 02:37 | 34.60169 | -100.15773 | 34618 ft | 482 kts | 36° |
| 2026-05-05 02:38 | 34.62190 | -100.12424 | 34617 ft | 504 kts | 51° |
| 2026-05-05 02:38 | 34.63587 | -100.08437 | 34607 ft | 524 kts | 68° |
| 2026-05-05 02:38 | 34.64177 | -100.04026 | 34610 ft | 536 kts | 86° |
| 2026-05-05 02:38 | 34.63857 | -99.99514 | 34618 ft | 540 kts | 104° |
| 2026-05-05 02:39 | 34.62575 | -99.95257 | 34586 ft | 533 kts | 125° |
| 2026-05-05 02:39 | 34.58238 | -99.88205 | 34560 ft | 520 kts | 142° |
| 2026-05-05 02:40 | 34.53070 | -99.82167 | 34601 ft | 518 kts | 144° |
| 2026-05-05 02:40 | 34.47917 | -99.76008 | 34599 ft | 522 kts | 143° |
| 2026-05-05 02:41 | 34.42801 | -99.69795 | 34609 ft | 524 kts | 143° |
| 2026-05-05 02:41 | 34.37638 | -99.63540 | 34603 ft | 526 kts | 143° |
| 2026-05-05 02:42 | 34.32493 | -99.57330 | 34594 ft | 526 kts | 142° |
| 2026-05-05 02:42 | 34.30131 | -99.53890 | 34041 ft | 539 kts | 127° |
| 2026-05-05 02:42 | 34.28257 | -99.49982 | 33713 ft | 534 kts | 120° |
| 2026-05-05 02:42 | 34.26601 | -99.45969 | 33176 ft | 531 kts | 118° |
| 2026-05-05 02:43 | 34.24994 | -99.41989 | 32740 ft | 524 kts | 119° |
| 2026-05-05 02:43 | 34.23353 | -99.38091 | 32311 ft | 516 kts | 121° |
| 2026-05-05 02:43 | 34.21662 | -99.34291 | 31891 ft | 509 kts | 122° |
| 2026-05-05 02:43 | 34.19945 | -99.30595 | 31480 ft | 502 kts | 123° |
| 2026-05-05 02:44 | 34.18211 | -99.26959 | 31073 ft | 495 kts | 123° |
| 2026-05-05 02:44 | 34.16492 | -99.23396 | 30680 ft | 488 kts | 124° |
| 2026-05-05 02:44 | 34.14810 | -99.19918 | 30295 ft | 482 kts | 124° |
| 2026-05-05 02:44 | 34.13131 | -99.16444 | 29873 ft | 478 kts | 123° |
| 2026-05-05 02:45 | 34.11469 | -99.12997 | 29465 ft | 473 kts | 123° |
| 2026-05-05 02:45 | 34.09821 | -99.09576 | 29026 ft | 468 kts | 123° |
| 2026-05-05 02:45 | 34.08194 | -99.06195 | 28588 ft | 464 kts | 123° |
| 2026-05-05 02:45 | 34.06578 | -99.02838 | 28323 ft | 466 kts | 123° |
| 2026-05-05 02:46 | 34.04928 | -98.99419 | 27927 ft | 476 kts | 123° |
| 2026-05-05 02:46 | 34.03254 | -98.95951 | 27525 ft | 481 kts | 123° |
| 2026-05-05 02:46 | 34.01576 | -98.92474 | 27125 ft | 479 kts | 123° |
| 2026-05-05 02:46 | 33.99906 | -98.89014 | 26726 ft | 476 kts | 123° |
| 2026-05-05 02:47 | 33.98247 | -98.85581 | 26355 ft | 474 kts | 123° |
| 2026-05-05 02:47 | 33.96608 | -98.82193 | 25973 ft | 472 kts | 123° |
| 2026-05-05 02:47 | 33.94959 | -98.78789 | 25599 ft | 469 kts | 123° |
| 2026-05-05 02:47 | 33.93320 | -98.75409 | 25220 ft | 466 kts | 123° |
| 2026-05-05 02:48 | 33.91688 | -98.72045 | 24862 ft | 463 kts | 123° |
| 2026-05-05 02:48 | 33.90066 | -98.68708 | 24482 ft | 461 kts | 123° |
| 2026-05-05 02:48 | 33.88449 | -98.65392 | 24127 ft | 462 kts | 123° |
| 2026-05-05 02:48 | 33.86776 | -98.62000 | 23757 ft | 480 kts | 123° |
| 2026-05-05 02:49 | 33.85053 | -98.58512 | 23343 ft | 487 kts | 123° |
| 2026-05-05 02:49 | 33.83326 | -98.55010 | 22856 ft | 486 kts | 123° |
| 2026-05-05 02:49 | 33.81614 | -98.51532 | 22377 ft | 481 kts | 123° |
| 2026-05-05 02:49 | 33.79945 | -98.48117 | 21813 ft | 477 kts | 122° |
| 2026-05-05 02:50 | 33.78289 | -98.44715 | 21277 ft | 465 kts | 122° |
| 2026-05-05 02:50 | 33.76678 | -98.41405 | 20729 ft | 454 kts | 122° |
| 2026-05-05 02:50 | 33.75097 | -98.38165 | 20250 ft | 446 kts | 123° |
| 2026-05-05 02:50 | 33.73538 | -98.34976 | 19767 ft | 440 kts | 123° |
| 2026-05-05 02:51 | 33.71998 | -98.31832 | 19307 ft | 433 kts | 123° |
| 2026-05-05 02:51 | 33.70478 | -98.28731 | 18833 ft | 427 kts | 123° |
| 2026-05-05 02:51 | 33.68980 | -98.25678 | 18403 ft | 420 kts | 123° |
| 2026-05-05 02:51 | 33.67534 | -98.22733 | 18047 ft | 412 kts | 123° |
| 2026-05-05 02:52 | 33.66086 | -98.19785 | 17565 ft | 408 kts | 123° |
| 2026-05-05 02:52 | 33.64628 | -98.16822 | 17106 ft | 407 kts | 123° |
| 2026-05-05 02:52 | 33.63183 | -98.13894 | 16693 ft | 408 kts | 123° |
| 2026-05-05 02:52 | 33.61750 | -98.11006 | 16318 ft | 408 kts | 123° |
| 2026-05-05 02:53 | 33.60297 | -98.08087 | 15951 ft | 405 kts | 123° |
| 2026-05-05 02:53 | 33.58858 | -98.05195 | 15583 ft | 403 kts | 123° |
| 2026-05-05 02:53 | 33.57426 | -98.02319 | 15228 ft | 400 kts | 123° |
| 2026-05-05 02:53 | 33.56003 | -97.99462 | 14861 ft | 398 kts | 123° |
| 2026-05-05 02:54 | 33.54592 | -97.96630 | 14512 ft | 396 kts | 123° |
| 2026-05-05 02:54 | 33.53181 | -97.93800 | 14160 ft | 394 kts | 123° |
| 2026-05-05 02:54 | 33.51776 | -97.90986 | 13801 ft | 392 kts | 122° |
| 2026-05-05 02:54 | 33.50413 | -97.88252 | 13409 ft | 381 kts | 122° |
| 2026-05-05 02:55 | 33.49060 | -97.85535 | 13029 ft | 369 kts | 123° |
| 2026-05-05 02:55 | 33.47784 | -97.82971 | 12707 ft | 359 kts | 123° |
| 2026-05-05 02:55 | 33.46515 | -97.80426 | 12386 ft | 354 kts | 123° |
| 2026-05-05 02:55 | 33.45254 | -97.77899 | 12033 ft | 353 kts | 123° |
| 2026-05-05 02:56 | 33.43996 | -97.75382 | 11704 ft | 352 kts | 123° |
| 2026-05-05 02:56 | 33.42744 | -97.72875 | 11385 ft | 350 kts | 123° |
| 2026-05-05 02:56 | 33.41499 | -97.70384 | 11074 ft | 350 kts | 124° |
| 2026-05-05 02:56 | 33.40252 | -97.67892 | 10773 ft | 347 kts | 124° |
| 2026-05-05 02:57 | 33.39022 | -97.65434 | 10451 ft | 341 kts | 124° |
| 2026-05-05 02:57 | 33.37784 | -97.63061 | 10134 ft | 331 kts | 128° |
| 2026-05-05 02:57 | 33.36460 | -97.60870 | 9926 ft | 317 kts | 131° |
| 2026-05-05 02:57 | 33.35161 | -97.58806 | 9614 ft | 311 kts | 131° |
| 2026-05-05 02:58 | 33.33883 | -97.56782 | 9315 ft | 305 kts | 131° |
| 2026-05-05 02:58 | 33.32620 | -97.54762 | 8978 ft | 301 kts | 131° |
| 2026-05-05 02:58 | 33.31384 | -97.52773 | 8712 ft | 297 kts | 130° |
| 2026-05-05 02:58 | 33.30156 | -97.50786 | 8444 ft | 298 kts | 130° |
| 2026-05-05 02:59 | 33.28928 | -97.48797 | 8160 ft | 299 kts | 130° |
| 2026-05-05 02:59 | 33.27686 | -97.46787 | 7890 ft | 300 kts | 130° |
| 2026-05-05 02:59 | 33.26345 | -97.44895 | 7611 ft | 297 kts | 141° |
| 2026-05-05 02:59 | 33.24817 | -97.43265 | 7355 ft | 293 kts | 144° |
| 2026-05-05 03:00 | 33.23267 | -97.41707 | 7085 ft | 291 kts | 145° |
| 2026-05-05 03:00 | 33.21724 | -97.40154 | 6818 ft | 289 kts | 144° |
| 2026-05-05 03:00 | 33.20202 | -97.38599 | 6565 ft | 287 kts | 144° |
| 2026-05-05 03:00 | 33.18718 | -97.37067 | 6300 ft | 285 kts | 144° |
| 2026-05-05 03:01 | 33.17223 | -97.35511 | 6044 ft | 284 kts | 144° |
| 2026-05-05 03:01 | 33.15745 | -97.33967 | 5770 ft | 282 kts | 144° |
| 2026-05-05 03:01 | 33.14275 | -97.32428 | 5506 ft | 279 kts | 144° |
| 2026-05-05 03:01 | 33.12819 | -97.30903 | 5250 ft | 276 kts | 144° |
| 2026-05-05 03:02 | 33.11383 | -97.29400 | 4998 ft | 274 kts | 145° |
| 2026-05-05 03:02 | 33.09975 | -97.27936 | 4933 ft | 261 kts | 145° |
| 2026-05-05 03:02 | 33.08647 | -97.26558 | 4851 ft | 246 kts | 145° |
| 2026-05-05 03:02 | 33.07378 | -97.25254 | 4680 ft | 236 kts | 146° |
| 2026-05-05 03:03 | 33.06143 | -97.23985 | 4386 ft | 232 kts | 146° |
| 2026-05-05 03:03 | 33.04947 | -97.22755 | 4091 ft | 228 kts | 146° |
| 2026-05-05 03:03 | 33.03767 | -97.21533 | 3821 ft | 222 kts | 147° |
| 2026-05-05 03:03 | 33.02627 | -97.20357 | 3526 ft | 209 kts | 147° |
| 2026-05-05 03:04 | 33.01573 | -97.19267 | 3258 ft | 192 kts | 148° |
| 2026-05-05 03:04 | 33.00613 | -97.18276 | 3026 ft | 175 kts | 149° |
| 2026-05-05 03:04 | 32.99738 | -97.17372 | 2802 ft | 158 kts | 150° |
| 2026-05-05 03:04 | 32.98950 | -97.16559 | 2618 ft | 144 kts | 151° |
| 2026-05-05 03:05 | 32.98201 | -97.15790 | 2487 ft | 140 kts | 151° |
| 2026-05-05 03:05 | 32.97462 | -97.15031 | 2290 ft | 140 kts | 151° |
| 2026-05-05 03:05 | 32.96725 | -97.14271 | 2111 ft | 141 kts | 149° |
| 2026-05-05 03:05 | 32.96004 | -97.13526 | 1926 ft | 137 kts | 149° |
| 2026-05-05 03:06 | 32.95300 | -97.12798 | 1738 ft | 132 kts | 149° |
| 2026-05-05 03:06 | 32.94612 | -97.12089 | 1529 ft | 132 kts | 148° |
| 2026-05-05 03:06 | 32.93924 | -97.11380 | 1390 ft | 131 kts | 143° |
| 2026-05-05 03:06 | 32.93226 | -97.10659 | 1208 ft | 136 kts | 143° |
| 2026-05-05 03:07 | 32.92498 | -97.09910 | 1120 ft | 139 kts | 144° |
| 2026-05-05 03:07 | 32.91748 | -97.09163 | 920 ft | 140 kts | 141° |
| 2026-05-05 03:07 | 32.91037 | -97.08409 | 672 ft | 133 kts | 140° |
| 2026-05-05 03:07 | 32.90388 | -97.07734 | 597 ft | 103 kts | 139° |
| 2026-05-05 03:08 | 32.90010 | -97.07339 | 597 ft | 43 kts | 139° |
| 2026-05-05 03:08 | 32.89866 | -97.07190 | 597 ft | 23 kts | 139° |
| 2026-05-05 03:08 | 32.89748 | -97.07066 | 597 ft | 22 kts | 139° |
| 2026-05-05 03:08 | 32.89648 | -97.06943 | 597 ft | 19 kts | 125° |
| 2026-05-05 03:09 | 32.89588 | -97.06803 | 597 ft | 19 kts | 111° |
| 2026-05-05 03:09 | 32.89544 | -97.06659 | 597 ft | 18 kts | 109° |
| 2026-05-05 03:09 | 32.89509 | -97.06520 | 597 ft | 17 kts | 108° |
| 2026-05-05 03:09 | 32.89467 | -97.06389 | 597 ft | 17 kts | 113° |
| 2026-05-05 03:10 | 32.89397 | -97.06291 | 597 ft | 16 kts | 144° |
| 2026-05-05 03:10 | 32.89313 | -97.06205 | 597 ft | 15 kts | 135° |
| 2026-05-05 03:10 | 32.89262 | -97.06149 | 597 ft | 15 kts | 139° |
| 2026-05-05 03:10 | 32.89185 | -97.06070 | 597 ft | 14 kts | 139° |
| 2026-05-05 03:11 | 32.89111 | -97.05994 | 597 ft | 14 kts | 139° |
| 2026-05-05 03:11 | 32.89047 | -97.05879 | 597 ft | 13 kts | 90° |
| 2026-05-05 03:11 | 32.89047 | -97.05774 | 597 ft | 13 kts | 90° |
| 2026-05-05 03:11 | 32.89047 | -97.05707 | 597 ft | 12 kts | 90° |
| 2026-05-05 03:12 | 32.89046 | -97.05606 | 597 ft | 11 kts | 90° |
| 2026-05-05 03:12 | 32.89046 | -97.05520 | 597 ft | 10 kts | 90° |